sensor_id;sensor_type;location;lat;lon;timestamp;P1;durP1;ratioP1;P2;durP2;ratioP2
24161;SDS011;12318;51.262;7.066;2023-02-01T00:01:44;36.33;;;10.82;;
24161;SDS011;12318;51.262;7.066;2023-02-01T00:04:10;31.85;;;10.20;;
24161;SDS011;12318;51.262;7.066;2023-02-01T00:06:36;27.17;;;9.73;;
24161;SDS011;12318;51.262;7.066;2023-02-01T00:09:05;24.20;;;9.52;;
24161;SDS011;12318;51.262;7.066;2023-02-01T00:11:31;32.85;;;10.23;;
24161;SDS011;12318;51.262;7.066;2023-02-01T00:13:57;29.38;;;9.15;;
24161;SDS011;12318;51.262;7.066;2023-02-01T00:16:26;32.78;;;8.63;;
24161;SDS011;12318;51.262;7.066;2023-02-01T00:19:04;32.43;;;8.00;;
24161;SDS011;12318;51.262;7.066;2023-02-01T00:21:39;27.70;;;8.02;;
24161;SDS011;12318;51.262;7.066;2023-02-01T00:24:09;24.77;;;7.68;;
24161;SDS011;12318;51.262;7.066;2023-02-01T00:26:37;29.35;;;8.45;;
24161;SDS011;12318;51.262;7.066;2023-02-01T00:29:06;26.63;;;8.73;;
24161;SDS011;12318;51.262;7.066;2023-02-01T00:34:02;26.85;;;9.13;;
24161;SDS011;12318;51.262;7.066;2023-02-01T00:36:28;31.17;;;9.38;;
24161;SDS011;12318;51.262;7.066;2023-02-01T00:38:54;30.58;;;9.30;;
24161;SDS011;12318;51.262;7.066;2023-02-01T00:41:20;33.38;;;8.88;;
24161;SDS011;12318;51.262;7.066;2023-02-01T00:43:47;29.80;;;10.38;;
24161;SDS011;12318;51.262;7.066;2023-02-01T00:46:14;23.80;;;9.50;;
24161;SDS011;12318;51.262;7.066;2023-02-01T00:48:41;31.73;;;10.23;;
24161;SDS011;12318;51.262;7.066;2023-02-01T00:51:08;33.17;;;11.82;;
24161;SDS011;12318;51.262;7.066;2023-02-01T00:53:36;33.78;;;11.07;;
24161;SDS011;12318;51.262;7.066;2023-02-01T00:56:02;28.90;;;11.50;;
24161;SDS011;12318;51.262;7.066;2023-02-01T00:58:30;38.15;;;12.57;;
24161;SDS011;12318;51.262;7.066;2023-02-01T01:03:32;33.03;;;15.15;;
24161;SDS011;12318;51.262;7.066;2023-02-01T01:06:01;38.78;;;15.00;;
24161;SDS011;12318;51.262;7.066;2023-02-01T01:08:29;37.50;;;14.77;;
24161;SDS011;12318;51.262;7.066;2023-02-01T01:10:55;40.38;;;16.48;;
24161;SDS011;12318;51.262;7.066;2023-02-01T01:13:21;39.72;;;15.75;;
24161;SDS011;12318;51.262;7.066;2023-02-01T01:15:48;37.72;;;15.68;;
24161;SDS011;12318;51.262;7.066;2023-02-01T01:18:14;48.72;;;17.20;;
24161;SDS011;12318;51.262;7.066;2023-02-01T01:20:40;47.63;;;16.48;;
24161;SDS011;12318;51.262;7.066;2023-02-01T01:23:08;45.20;;;16.40;;
24161;SDS011;12318;51.262;7.066;2023-02-01T01:25:38;37.03;;;14.32;;
24161;SDS011;12318;51.262;7.066;2023-02-01T01:28:05;37.70;;;14.88;;
24161;SDS011;12318;51.262;7.066;2023-02-01T01:30:31;32.90;;;13.35;;
24161;SDS011;12318;51.262;7.066;2023-02-01T01:32:58;40.17;;;13.40;;
24161;SDS011;12318;51.262;7.066;2023-02-01T01:35:24;37.05;;;13.52;;
24161;SDS011;12318;51.262;7.066;2023-02-01T01:37:51;39.97;;;13.10;;
24161;SDS011;12318;51.262;7.066;2023-02-01T01:40:17;39.95;;;12.30;;
24161;SDS011;12318;51.262;7.066;2023-02-01T01:42:43;33.80;;;11.18;;
24161;SDS011;12318;51.262;7.066;2023-02-01T01:47:44;31.10;;;9.38;;
24161;SDS011;12318;51.262;7.066;2023-02-01T01:50:18;33.00;;;9.82;;
24161;SDS011;12318;51.262;7.066;2023-02-01T01:52:49;33.22;;;8.55;;
24161;SDS011;12318;51.262;7.066;2023-02-01T01:55:17;36.95;;;9.35;;
24161;SDS011;12318;51.262;7.066;2023-02-01T01:57:46;29.55;;;8.02;;
24161;SDS011;12318;51.262;7.066;2023-02-01T02:00:17;26.08;;;6.75;;
24161;SDS011;12318;51.262;7.066;2023-02-01T02:02:46;26.88;;;6.97;;
24161;SDS011;12318;51.262;7.066;2023-02-01T02:05:16;33.70;;;7.47;;
24161;SDS011;12318;51.262;7.066;2023-02-01T02:07:45;31.08;;;7.82;;
24161;SDS011;12318;51.262;7.066;2023-02-01T02:10:13;27.83;;;8.05;;
24161;SDS011;12318;51.262;7.066;2023-02-01T02:12:41;35.85;;;7.50;;
24161;SDS011;12318;51.262;7.066;2023-02-01T02:15:08;31.60;;;6.53;;
24161;SDS011;12318;51.262;7.066;2023-02-01T02:39:48;27.63;;;5.30;;
24161;SDS011;12318;51.262;7.066;2023-02-01T02:45:51;34.95;;;5.45;;
24161;SDS011;12318;51.262;7.066;2023-02-01T02:51:14;27.45;;;4.90;;
24161;SDS011;12318;51.262;7.066;2023-02-01T02:54:13;20.48;;;5.38;;
24161;SDS011;12318;51.262;7.066;2023-02-01T02:57:03;24.63;;;5.55;;
24161;SDS011;12318;51.262;7.066;2023-02-01T02:59:52;30.17;;;5.20;;
24161;SDS011;12318;51.262;7.066;2023-02-01T03:02:37;21.95;;;5.28;;
24161;SDS011;12318;51.262;7.066;2023-02-01T03:05:22;25.45;;;5.30;;
24161;SDS011;12318;51.262;7.066;2023-02-01T03:18:12;28.08;;;5.35;;
24161;SDS011;12318;51.262;7.066;2023-02-01T03:20:42;27.15;;;4.93;;
24161;SDS011;12318;51.262;7.066;2023-02-01T03:23:14;26.35;;;5.45;;
24161;SDS011;12318;51.262;7.066;2023-02-01T03:28:09;29.75;;;5.60;;
24161;SDS011;12318;51.262;7.066;2023-02-01T03:30:40;21.38;;;4.50;;
24161;SDS011;12318;51.262;7.066;2023-02-01T03:33:14;27.83;;;4.40;;
24161;SDS011;12318;51.262;7.066;2023-02-01T03:41:32;30.67;;;5.47;;
24161;SDS011;12318;51.262;7.066;2023-02-01T03:44:18;30.65;;;5.65;;
24161;SDS011;12318;51.262;7.066;2023-02-01T03:46:59;33.33;;;5.78;;
24161;SDS011;12318;51.262;7.066;2023-02-01T03:49:41;27.33;;;5.35;;
24161;SDS011;12318;51.262;7.066;2023-02-01T03:52:14;33.35;;;7.18;;
24161;SDS011;12318;51.262;7.066;2023-02-01T03:54:47;40.67;;;6.30;;
24161;SDS011;12318;51.262;7.066;2023-02-01T03:57:16;27.70;;;5.85;;
24161;SDS011;12318;51.262;7.066;2023-02-01T03:59:51;28.83;;;5.18;;
24161;SDS011;12318;51.262;7.066;2023-02-01T04:02:28;33.50;;;5.70;;
24161;SDS011;12318;51.262;7.066;2023-02-01T04:04:53;28.75;;;5.38;;
24161;SDS011;12318;51.262;7.066;2023-02-01T04:07:19;30.58;;;6.00;;
24161;SDS011;12318;51.262;7.066;2023-02-01T04:09:45;23.52;;;5.25;;
24161;SDS011;12318;51.262;7.066;2023-02-01T04:12:11;30.58;;;5.60;;
24161;SDS011;12318;51.262;7.066;2023-02-01T04:14:36;32.08;;;6.07;;
24161;SDS011;12318;51.262;7.066;2023-02-01T04:17:02;36.42;;;6.72;;
24161;SDS011;12318;51.262;7.066;2023-02-01T04:19:28;34.53;;;6.22;;
24161;SDS011;12318;51.262;7.066;2023-02-01T04:21:54;35.95;;;6.38;;
24161;SDS011;12318;51.262;7.066;2023-02-01T04:24:19;34.38;;;5.78;;
24161;SDS011;12318;51.262;7.066;2023-02-01T04:26:45;34.47;;;6.03;;
24161;SDS011;12318;51.262;7.066;2023-02-01T04:29:11;34.28;;;6.05;;
24161;SDS011;12318;51.262;7.066;2023-02-01T04:31:37;33.90;;;5.25;;
24161;SDS011;12318;51.262;7.066;2023-02-01T04:34:03;34.05;;;5.35;;
24161;SDS011;12318;51.262;7.066;2023-02-01T04:36:29;28.58;;;5.45;;
24161;SDS011;12318;51.262;7.066;2023-02-01T04:38:54;28.17;;;5.38;;
24161;SDS011;12318;51.262;7.066;2023-02-01T04:41:20;37.70;;;5.82;;
24161;SDS011;12318;51.262;7.066;2023-02-01T04:43:48;29.17;;;5.40;;
24161;SDS011;12318;51.262;7.066;2023-02-01T04:46:15;33.70;;;6.03;;
24161;SDS011;12318;51.262;7.066;2023-02-01T04:48:40;25.35;;;4.65;;
24161;SDS011;12318;51.262;7.066;2023-02-01T04:51:07;29.48;;;4.78;;
24161;SDS011;12318;51.262;7.066;2023-02-01T04:53:33;30.83;;;5.28;;
24161;SDS011;12318;51.262;7.066;2023-02-01T04:56:00;27.80;;;5.32;;
24161;SDS011;12318;51.262;7.066;2023-02-01T04:58:26;32.88;;;6.15;;
24161;SDS011;12318;51.262;7.066;2023-02-01T05:00:54;30.80;;;5.90;;
24161;SDS011;12318;51.262;7.066;2023-02-01T05:03:19;39.30;;;5.53;;
24161;SDS011;12318;51.262;7.066;2023-02-01T05:05:48;32.45;;;5.20;;
24161;SDS011;12318;51.262;7.066;2023-02-01T05:08:14;33.38;;;6.07;;
24161;SDS011;12318;51.262;7.066;2023-02-01T05:10:40;28.67;;;5.22;;
24161;SDS011;12318;51.262;7.066;2023-02-01T05:13:07;31.67;;;5.85;;
24161;SDS011;12318;51.262;7.066;2023-02-01T05:15:52;27.55;;;5.00;;
24161;SDS011;12318;51.262;7.066;2023-02-01T05:18:18;32.60;;;6.07;;
24161;SDS011;12318;51.262;7.066;2023-02-01T05:20:43;28.17;;;5.75;;
24161;SDS011;12318;51.262;7.066;2023-02-01T05:23:09;29.13;;;5.18;;
24161;SDS011;12318;51.262;7.066;2023-02-01T05:25:35;35.72;;;6.25;;
24161;SDS011;12318;51.262;7.066;2023-02-01T05:28:01;32.85;;;5.78;;
24161;SDS011;12318;51.262;7.066;2023-02-01T05:30:28;29.30;;;5.30;;
24161;SDS011;12318;51.262;7.066;2023-02-01T05:32:53;39.75;;;5.82;;
24161;SDS011;12318;51.262;7.066;2023-02-01T05:35:19;24.08;;;5.78;;
24161;SDS011;12318;51.262;7.066;2023-02-01T05:37:45;34.05;;;6.30;;
24161;SDS011;12318;51.262;7.066;2023-02-01T05:40:11;33.47;;;5.53;;
24161;SDS011;12318;51.262;7.066;2023-02-01T05:42:37;31.90;;;5.25;;
24161;SDS011;12318;51.262;7.066;2023-02-01T05:45:03;30.88;;;5.43;;
24161;SDS011;12318;51.262;7.066;2023-02-01T05:47:30;38.85;;;5.70;;
24161;SDS011;12318;51.262;7.066;2023-02-01T05:49:56;27.73;;;5.00;;
24161;SDS011;12318;51.262;7.066;2023-02-01T05:52:24;31.85;;;5.57;;
24161;SDS011;12318;51.262;7.066;2023-02-01T05:54:50;31.52;;;5.70;;
24161;SDS011;12318;51.262;7.066;2023-02-01T05:57:18;26.42;;;5.55;;
24161;SDS011;12318;51.262;7.066;2023-02-01T05:59:47;31.80;;;4.72;;
24161;SDS011;12318;51.262;7.066;2023-02-01T06:02:14;39.28;;;6.00;;
24161;SDS011;12318;51.262;7.066;2023-02-01T06:04:43;32.33;;;7.18;;
24161;SDS011;12318;51.262;7.066;2023-02-01T06:07:09;36.03;;;5.68;;
24161;SDS011;12318;51.262;7.066;2023-02-01T06:09:35;31.70;;;5.25;;
24161;SDS011;12318;51.262;7.066;2023-02-01T06:12:04;30.85;;;4.75;;
24161;SDS011;12318;51.262;7.066;2023-02-01T06:14:31;31.15;;;5.25;;
24161;SDS011;12318;51.262;7.066;2023-02-01T06:17:02;40.85;;;5.60;;
24161;SDS011;12318;51.262;7.066;2023-02-01T06:19:31;32.05;;;5.53;;
24161;SDS011;12318;51.262;7.066;2023-02-01T06:21:57;30.10;;;4.95;;
24161;SDS011;12318;51.262;7.066;2023-02-01T06:24:23;28.55;;;5.60;;
24161;SDS011;12318;51.262;7.066;2023-02-01T06:26:49;34.22;;;5.80;;
24161;SDS011;12318;51.262;7.066;2023-02-01T06:29:15;30.52;;;5.07;;
24161;SDS011;12318;51.262;7.066;2023-02-01T06:31:43;35.47;;;5.05;;
24161;SDS011;12318;51.262;7.066;2023-02-01T06:34:11;33.83;;;5.63;;
24161;SDS011;12318;51.262;7.066;2023-02-01T06:36:40;31.77;;;6.07;;
24161;SDS011;12318;51.262;7.066;2023-02-01T06:39:09;32.13;;;5.80;;
24161;SDS011;12318;51.262;7.066;2023-02-01T06:41:37;33.90;;;5.57;;
24161;SDS011;12318;51.262;7.066;2023-02-01T06:44:04;33.75;;;5.80;;
24161;SDS011;12318;51.262;7.066;2023-02-01T06:46:29;44.47;;;6.45;;
24161;SDS011;12318;51.262;7.066;2023-02-01T06:48:55;32.05;;;6.22;;
24161;SDS011;12318;51.262;7.066;2023-02-01T06:51:25;27.92;;;6.03;;
24161;SDS011;12318;51.262;7.066;2023-02-01T06:53:56;35.22;;;6.18;;
24161;SDS011;12318;51.262;7.066;2023-02-01T06:56:22;33.00;;;5.72;;
24161;SDS011;12318;51.262;7.066;2023-02-01T06:58:51;33.63;;;5.57;;
24161;SDS011;12318;51.262;7.066;2023-02-01T07:01:22;41.13;;;6.35;;
24161;SDS011;12318;51.262;7.066;2023-02-01T07:03:49;29.90;;;5.78;;
24161;SDS011;12318;51.262;7.066;2023-02-01T07:06:18;35.03;;;5.50;;
24161;SDS011;12318;51.262;7.066;2023-02-01T07:08:47;28.23;;;5.43;;
24161;SDS011;12318;51.262;7.066;2023-02-01T07:11:14;26.52;;;4.55;;
24161;SDS011;12318;51.262;7.066;2023-02-01T07:13:40;22.73;;;4.90;;
24161;SDS011;12318;51.262;7.066;2023-02-01T07:16:09;34.22;;;6.07;;
24161;SDS011;12318;51.262;7.066;2023-02-01T07:18:40;35.38;;;5.75;;
24161;SDS011;12318;51.262;7.066;2023-02-01T07:21:06;33.42;;;5.18;;
24161;SDS011;12318;51.262;7.066;2023-02-01T07:23:32;32.00;;;5.50;;
24161;SDS011;12318;51.262;7.066;2023-02-01T07:26:03;28.55;;;4.95;;
24161;SDS011;12318;51.262;7.066;2023-02-01T07:28:30;23.63;;;4.38;;
24161;SDS011;12318;51.262;7.066;2023-02-01T07:31:02;35.78;;;5.55;;
24161;SDS011;12318;51.262;7.066;2023-02-01T07:33:33;31.48;;;5.40;;
24161;SDS011;12318;51.262;7.066;2023-02-01T07:36:02;31.08;;;5.13;;
24161;SDS011;12318;51.262;7.066;2023-02-01T07:38:29;26.73;;;4.88;;
24161;SDS011;12318;51.262;7.066;2023-02-01T07:40:59;25.75;;;4.95;;
24161;SDS011;12318;51.262;7.066;2023-02-01T07:43:35;30.30;;;5.22;;
24161;SDS011;12318;51.262;7.066;2023-02-01T07:48:36;29.55;;;5.60;;
24161;SDS011;12318;51.262;7.066;2023-02-01T07:51:07;35.40;;;5.78;;
24161;SDS011;12318;51.262;7.066;2023-02-01T07:53:38;36.30;;;4.82;;
24161;SDS011;12318;51.262;7.066;2023-02-01T07:56:25;32.55;;;5.50;;
24161;SDS011;12318;51.262;7.066;2023-02-01T08:16:03;31.40;;;6.38;;
24161;SDS011;12318;51.262;7.066;2023-02-01T08:18:31;29.30;;;5.88;;
24161;SDS011;12318;51.262;7.066;2023-02-01T08:24:18;34.50;;;6.07;;
24161;SDS011;12318;51.262;7.066;2023-02-01T09:02:51;34.00;;;5.68;;
24161;SDS011;12318;51.262;7.066;2023-02-01T09:05:46;28.13;;;5.60;;
24161;SDS011;12318;51.262;7.066;2023-02-01T09:16:02;30.50;;;5.70;;
24161;SDS011;12318;51.262;7.066;2023-02-01T09:18:28;35.75;;;6.18;;
24161;SDS011;12318;51.262;7.066;2023-02-01T09:21:03;35.35;;;5.75;;
24161;SDS011;12318;51.262;7.066;2023-02-01T09:23:44;30.13;;;5.45;;
24161;SDS011;12318;51.262;7.066;2023-02-01T09:26:44;30.55;;;6.55;;
24161;SDS011;12318;51.262;7.066;2023-02-01T09:29:16;33.92;;;6.22;;
24161;SDS011;12318;51.262;7.066;2023-02-01T09:31:56;27.77;;;6.03;;
24161;SDS011;12318;51.262;7.066;2023-02-01T09:38:49;24.88;;;5.28;;
24161;SDS011;12318;51.262;7.066;2023-02-01T09:48:12;30.38;;;6.00;;
24161;SDS011;12318;51.262;7.066;2023-02-01T09:51:11;24.83;;;5.78;;
24161;SDS011;12318;51.262;7.066;2023-02-01T09:53:44;24.77;;;5.43;;
24161;SDS011;12318;51.262;7.066;2023-02-01T09:56:26;25.95;;;5.82;;
24161;SDS011;12318;51.262;7.066;2023-02-01T10:22:15;28.73;;;5.45;;
24161;SDS011;12318;51.262;7.066;2023-02-01T10:25:03;30.27;;;5.75;;
24161;SDS011;12318;51.262;7.066;2023-02-01T10:27:38;34.47;;;6.22;;
24161;SDS011;12318;51.262;7.066;2023-02-01T10:32:40;33.35;;;5.72;;
24161;SDS011;12318;51.262;7.066;2023-02-01T10:35:21;28.98;;;6.30;;
24161;SDS011;12318;51.262;7.066;2023-02-01T10:38:23;32.78;;;6.00;;
24161;SDS011;12318;51.262;7.066;2023-02-01T10:43:41;27.35;;;5.65;;
24161;SDS011;12318;51.262;7.066;2023-02-01T10:46:08;31.05;;;6.00;;
24161;SDS011;12318;51.262;7.066;2023-02-01T10:48:34;38.38;;;5.75;;
24161;SDS011;12318;51.262;7.066;2023-02-01T10:51:02;34.53;;;5.25;;
24161;SDS011;12318;51.262;7.066;2023-02-01T10:53:57;33.53;;;5.57;;
24161;SDS011;12318;51.262;7.066;2023-02-01T10:56:45;26.08;;;5.32;;
24161;SDS011;12318;51.262;7.066;2023-02-01T10:59:23;29.95;;;6.10;;
24161;SDS011;12318;51.262;7.066;2023-02-01T11:01:50;29.13;;;5.75;;
24161;SDS011;12318;51.262;7.066;2023-02-01T11:04:26;33.42;;;6.15;;
24161;SDS011;12318;51.262;7.066;2023-02-01T11:09:48;25.85;;;5.75;;
24161;SDS011;12318;51.262;7.066;2023-02-01T11:12:27;28.55;;;5.53;;
24161;SDS011;12318;51.262;7.066;2023-02-01T11:14:56;33.25;;;5.60;;
24161;SDS011;12318;51.262;7.066;2023-02-01T11:17:43;30.30;;;5.85;;
24161;SDS011;12318;51.262;7.066;2023-02-01T11:20:17;25.35;;;5.38;;
24161;SDS011;12318;51.262;7.066;2023-02-01T11:22:52;26.75;;;5.22;;
24161;SDS011;12318;51.262;7.066;2023-02-01T11:25:21;24.00;;;5.03;;
24161;SDS011;12318;51.262;7.066;2023-02-01T11:27:48;27.58;;;5.32;;
24161;SDS011;12318;51.262;7.066;2023-02-01T11:30:16;21.17;;;4.13;;
24161;SDS011;12318;51.262;7.066;2023-02-01T11:35:15;24.90;;;4.90;;
24161;SDS011;12318;51.262;7.066;2023-02-01T11:37:44;22.35;;;4.00;;
24161;SDS011;12318;51.262;7.066;2023-02-01T11:42:56;20.88;;;4.47;;
24161;SDS011;12318;51.262;7.066;2023-02-01T11:45:33;21.63;;;4.18;;
24161;SDS011;12318;51.262;7.066;2023-02-01T11:48:09;26.75;;;5.35;;
24161;SDS011;12318;51.262;7.066;2023-02-01T11:51:01;25.98;;;4.57;;
24161;SDS011;12318;51.262;7.066;2023-02-01T11:57:03;21.20;;;4.60;;
24161;SDS011;12318;51.262;7.066;2023-02-01T12:05:58;26.10;;;5.13;;
24161;SDS011;12318;51.262;7.066;2023-02-01T12:11:13;24.10;;;5.20;;
24161;SDS011;12318;51.262;7.066;2023-02-01T12:22:25;22.60;;;5.20;;
24161;SDS011;12318;51.262;7.066;2023-02-01T12:33:06;22.80;;;4.85;;
24161;SDS011;12318;51.262;7.066;2023-02-01T12:36:05;27.33;;;5.13;;
24161;SDS011;12318;51.262;7.066;2023-02-01T12:38:52;26.73;;;5.65;;
24161;SDS011;12318;51.262;7.066;2023-02-01T12:44:38;23.63;;;4.70;;
24161;SDS011;12318;51.262;7.066;2023-02-01T12:47:26;28.80;;;5.80;;
24161;SDS011;12318;51.262;7.066;2023-02-01T12:50:17;25.20;;;5.30;;
24161;SDS011;12318;51.262;7.066;2023-02-01T12:52:54;35.53;;;5.75;;
24161;SDS011;12318;51.262;7.066;2023-02-01T12:55:42;21.67;;;4.40;;
24161;SDS011;12318;51.262;7.066;2023-02-01T12:58:24;28.70;;;5.40;;
24161;SDS011;12318;51.262;7.066;2023-02-01T13:03:59;28.67;;;5.45;;
24161;SDS011;12318;51.262;7.066;2023-02-01T13:06:59;25.63;;;6.20;;
24161;SDS011;12318;51.262;7.066;2023-02-01T13:21:05;20.98;;;5.75;;
24161;SDS011;12318;51.262;7.066;2023-02-01T13:27:42;24.88;;;5.20;;
24161;SDS011;12318;51.262;7.066;2023-02-01T13:37:44;28.50;;;5.97;;
24161;SDS011;12318;51.262;7.066;2023-02-01T13:40:18;24.55;;;5.50;;
24161;SDS011;12318;51.262;7.066;2023-02-01T13:43:28;29.95;;;5.05;;
24161;SDS011;12318;51.262;7.066;2023-02-01T13:45:53;30.35;;;4.47;;
24161;SDS011;12318;51.262;7.066;2023-02-01T13:49:12;33.83;;;5.68;;
24161;SDS011;12318;51.262;7.066;2023-02-01T13:51:17;28.25;;;5.82;;
24161;SDS011;12318;51.262;7.066;2023-02-01T13:56:26;31.30;;;4.93;;
24161;SDS011;12318;51.262;7.066;2023-02-01T13:58:55;22.15;;;3.70;;
24161;SDS011;12318;51.262;7.066;2023-02-01T14:09:10;19.63;;;3.78;;
24161;SDS011;12318;51.262;7.066;2023-02-01T14:11:56;22.10;;;3.80;;
24161;SDS011;12318;51.262;7.066;2023-02-01T14:24:35;18.15;;;3.35;;
24161;SDS011;12318;51.262;7.066;2023-02-01T14:29:38;21.70;;;3.25;;
24161;SDS011;12318;51.262;7.066;2023-02-01T14:32:15;17.98;;;3.22;;
24161;SDS011;12318;51.262;7.066;2023-02-01T14:42:32;24.95;;;3.92;;
24161;SDS011;12318;51.262;7.066;2023-02-01T14:47:48;22.00;;;3.30;;
24161;SDS011;12318;51.262;7.066;2023-02-01T15:00:57;23.40;;;3.65;;
24161;SDS011;12318;51.262;7.066;2023-02-01T15:03:43;23.83;;;3.92;;
24161;SDS011;12318;51.262;7.066;2023-02-01T15:14:39;22.63;;;3.58;;
24161;SDS011;12318;51.262;7.066;2023-02-01T15:17:21;27.25;;;4.40;;
24161;SDS011;12318;51.262;7.066;2023-02-01T15:22:21;22.52;;;3.58;;
24161;SDS011;12318;51.262;7.066;2023-02-01T15:24:53;26.77;;;3.90;;
24161;SDS011;12318;51.262;7.066;2023-02-01T15:27:28;17.67;;;3.38;;
24161;SDS011;12318;51.262;7.066;2023-02-01T15:30:07;21.63;;;3.70;;
24161;SDS011;12318;51.262;7.066;2023-02-01T15:32:35;21.55;;;3.75;;
24161;SDS011;12318;51.262;7.066;2023-02-01T15:35:04;22.52;;;3.45;;
24161;SDS011;12318;51.262;7.066;2023-02-01T15:37:31;16.45;;;3.63;;
24161;SDS011;12318;51.262;7.066;2023-02-01T15:42:38;24.88;;;4.47;;
24161;SDS011;12318;51.262;7.066;2023-02-01T15:45:18;18.63;;;3.70;;
24161;SDS011;12318;51.262;7.066;2023-02-01T15:50:15;23.35;;;4.15;;
24161;SDS011;12318;51.262;7.066;2023-02-01T15:52:41;20.15;;;3.45;;
24161;SDS011;12318;51.262;7.066;2023-02-01T15:57:43;20.08;;;3.20;;
24161;SDS011;12318;51.262;7.066;2023-02-01T16:03:00;25.92;;;4.70;;
24161;SDS011;12318;51.262;7.066;2023-02-01T16:05:40;19.70;;;3.70;;
24161;SDS011;12318;51.262;7.066;2023-02-01T16:08:10;26.38;;;3.92;;
24161;SDS011;12318;51.262;7.066;2023-02-01T16:10:39;25.25;;;4.05;;
24161;SDS011;12318;51.262;7.066;2023-02-01T16:13:08;29.65;;;3.92;;
24161;SDS011;12318;51.262;7.066;2023-02-01T16:15:34;30.17;;;5.20;;
24161;SDS011;12318;51.262;7.066;2023-02-01T16:18:00;25.42;;;4.15;;
24161;SDS011;12318;51.262;7.066;2023-02-01T16:20:25;25.15;;;4.13;;
24161;SDS011;12318;51.262;7.066;2023-02-01T16:22:51;27.35;;;4.50;;
24161;SDS011;12318;51.262;7.066;2023-02-01T16:25:17;24.15;;;4.55;;
24161;SDS011;12318;51.262;7.066;2023-02-01T16:27:43;24.08;;;4.03;;
24161;SDS011;12318;51.262;7.066;2023-02-01T16:30:09;26.83;;;3.83;;
24161;SDS011;12318;51.262;7.066;2023-02-01T16:32:35;25.02;;;4.70;;
24161;SDS011;12318;51.262;7.066;2023-02-01T16:35:03;25.10;;;4.32;;
24161;SDS011;12318;51.262;7.066;2023-02-01T16:37:30;32.63;;;4.57;;
24161;SDS011;12318;51.262;7.066;2023-02-01T16:39:58;25.50;;;4.25;;
24161;SDS011;12318;51.262;7.066;2023-02-01T16:42:24;26.95;;;3.83;;
24161;SDS011;12318;51.262;7.066;2023-02-01T16:44:50;24.70;;;4.65;;
24161;SDS011;12318;51.262;7.066;2023-02-01T16:47:19;27.98;;;5.13;;
24161;SDS011;12318;51.262;7.066;2023-02-01T16:49:47;25.30;;;3.95;;
24161;SDS011;12318;51.262;7.066;2023-02-01T16:52:14;29.02;;;4.55;;
24161;SDS011;12318;51.262;7.066;2023-02-01T16:54:45;25.50;;;4.50;;
24161;SDS011;12318;51.262;7.066;2023-02-01T16:57:12;32.78;;;4.70;;
24161;SDS011;12318;51.262;7.066;2023-02-01T16:59:39;32.50;;;5.00;;
24161;SDS011;12318;51.262;7.066;2023-02-01T17:02:05;24.42;;;4.15;;
24161;SDS011;12318;51.262;7.066;2023-02-01T17:04:34;29.98;;;4.13;;
24161;SDS011;12318;51.262;7.066;2023-02-01T17:07:00;28.50;;;4.75;;
24161;SDS011;12318;51.262;7.066;2023-02-01T17:09:33;23.42;;;4.20;;
24161;SDS011;12318;51.262;7.066;2023-02-01T17:12:02;33.58;;;5.55;;
24161;SDS011;12318;51.262;7.066;2023-02-01T17:14:30;20.48;;;3.70;;
24161;SDS011;12318;51.262;7.066;2023-02-01T17:16:59;30.42;;;4.47;;
24161;SDS011;12318;51.262;7.066;2023-02-01T17:19:25;21.25;;;4.35;;
24161;SDS011;12318;51.262;7.066;2023-02-01T17:21:52;22.55;;;3.95;;
24161;SDS011;12318;51.262;7.066;2023-02-01T17:24:30;23.60;;;4.80;;
24161;SDS011;12318;51.262;7.066;2023-02-01T17:26:56;24.80;;;3.97;;
24161;SDS011;12318;51.262;7.066;2023-02-01T17:29:23;18.30;;;4.05;;
24161;SDS011;12318;51.262;7.066;2023-02-01T17:31:50;25.10;;;4.60;;
24161;SDS011;12318;51.262;7.066;2023-02-01T17:34:18;26.98;;;4.80;;
24161;SDS011;12318;51.262;7.066;2023-02-01T17:36:45;27.15;;;4.50;;
24161;SDS011;12318;51.262;7.066;2023-02-01T17:39:12;29.73;;;5.15;;
24161;SDS011;12318;51.262;7.066;2023-02-01T17:41:59;19.70;;;4.07;;
24161;SDS011;12318;51.262;7.066;2023-02-01T17:44:25;24.55;;;4.88;;
24161;SDS011;12318;51.262;7.066;2023-02-01T17:46:51;28.33;;;4.90;;
24161;SDS011;12318;51.262;7.066;2023-02-01T17:49:17;26.58;;;4.45;;
24161;SDS011;12318;51.262;7.066;2023-02-01T17:51:43;30.65;;;4.40;;
24161;SDS011;12318;51.262;7.066;2023-02-01T17:54:12;29.55;;;5.25;;
24161;SDS011;12318;51.262;7.066;2023-02-01T17:56:39;18.83;;;4.47;;
24161;SDS011;12318;51.262;7.066;2023-02-01T17:59:05;20.60;;;4.82;;
24161;SDS011;12318;51.262;7.066;2023-02-01T18:01:30;21.42;;;5.43;;
24161;SDS011;12318;51.262;7.066;2023-02-01T18:03:56;28.80;;;4.45;;
24161;SDS011;12318;51.262;7.066;2023-02-01T18:06:23;23.45;;;4.35;;
24161;SDS011;12318;51.262;7.066;2023-02-01T18:08:55;28.38;;;4.28;;
24161;SDS011;12318;51.262;7.066;2023-02-01T18:11:21;23.98;;;4.57;;
24161;SDS011;12318;51.262;7.066;2023-02-01T18:13:49;20.35;;;4.15;;
24161;SDS011;12318;51.262;7.066;2023-02-01T18:16:21;29.13;;;4.78;;
24161;SDS011;12318;51.262;7.066;2023-02-01T18:18:49;22.70;;;3.60;;
24161;SDS011;12318;51.262;7.066;2023-02-01T18:21:15;24.38;;;4.05;;
24161;SDS011;12318;51.262;7.066;2023-02-01T18:23:43;16.55;;;3.70;;
24161;SDS011;12318;51.262;7.066;2023-02-01T18:26:14;25.95;;;4.20;;
24161;SDS011;12318;51.262;7.066;2023-02-01T18:28:41;22.90;;;4.72;;
24161;SDS011;12318;51.262;7.066;2023-02-01T18:31:21;23.98;;;4.47;;
24161;SDS011;12318;51.262;7.066;2023-02-01T18:33:49;28.90;;;4.97;;
24161;SDS011;12318;51.262;7.066;2023-02-01T18:36:16;21.38;;;4.00;;
24161;SDS011;12318;51.262;7.066;2023-02-01T18:38:43;31.20;;;4.95;;
24161;SDS011;12318;51.262;7.066;2023-02-01T18:41:10;25.75;;;4.45;;
24161;SDS011;12318;51.262;7.066;2023-02-01T18:43:47;25.33;;;4.18;;
24161;SDS011;12318;51.262;7.066;2023-02-01T18:46:14;27.88;;;4.38;;
24161;SDS011;12318;51.262;7.066;2023-02-01T18:48:40;28.05;;;4.57;;
24161;SDS011;12318;51.262;7.066;2023-02-01T18:51:09;27.48;;;4.25;;
24161;SDS011;12318;51.262;7.066;2023-02-01T18:53:36;27.60;;;5.97;;
24161;SDS011;12318;51.262;7.066;2023-02-01T18:56:02;24.45;;;4.32;;
24161;SDS011;12318;51.262;7.066;2023-02-01T18:58:28;23.67;;;4.18;;
24161;SDS011;12318;51.262;7.066;2023-02-01T19:00:54;17.40;;;3.17;;
24161;SDS011;12318;51.262;7.066;2023-02-01T19:03:21;25.15;;;4.43;;
24161;SDS011;12318;51.262;7.066;2023-02-01T19:05:53;24.42;;;5.20;;
24161;SDS011;12318;51.262;7.066;2023-02-01T19:08:20;28.23;;;4.60;;
24161;SDS011;12318;51.262;7.066;2023-02-01T19:10:48;22.98;;;4.78;;
24161;SDS011;12318;51.262;7.066;2023-02-01T19:13:14;29.85;;;4.63;;
24161;SDS011;12318;51.262;7.066;2023-02-01T19:15:40;23.52;;;4.95;;
24161;SDS011;12318;51.262;7.066;2023-02-01T19:18:08;24.40;;;4.32;;
24161;SDS011;12318;51.262;7.066;2023-02-01T19:20:36;24.90;;;4.70;;
24161;SDS011;12318;51.262;7.066;2023-02-01T19:23:05;27.00;;;4.95;;
24161;SDS011;12318;51.262;7.066;2023-02-01T19:25:32;28.25;;;5.03;;
24161;SDS011;12318;51.262;7.066;2023-02-01T19:27:57;26.80;;;4.25;;
24161;SDS011;12318;51.262;7.066;2023-02-01T19:30:23;29.70;;;4.75;;
24161;SDS011;12318;51.262;7.066;2023-02-01T19:32:49;27.45;;;5.20;;
24161;SDS011;12318;51.262;7.066;2023-02-01T19:35:16;24.77;;;4.45;;
24161;SDS011;12318;51.262;7.066;2023-02-01T19:37:44;32.70;;;5.53;;
24161;SDS011;12318;51.262;7.066;2023-02-01T19:40:12;19.70;;;3.92;;
24161;SDS011;12318;51.262;7.066;2023-02-01T19:45:08;31.40;;;4.60;;
24161;SDS011;12318;51.262;7.066;2023-02-01T19:47:34;26.63;;;4.30;;
24161;SDS011;12318;51.262;7.066;2023-02-01T19:50:01;25.40;;;4.30;;